Time;durP1;ratioP1;P1;durP2;ratioP2;P2;SDS_P1;SDS_P2;PMS_P1;PMS_P2;Temp;Humidity;BMP_temperature;BMP_pressure;BME280_temperature;BME280_humidity;BME280_pressure;Samples;Min_cycle;Max_cycle;Signal;HPM_P1;HPM_P2
2022/10/05 00:00:56;;;;;;;5.68;2.78;;;12.60;99.90;;;;;;6046903;29;20297;-66
2022/10/05 00:04:14;;;;;;;3.15;2.33;;;12.60;99.90;;;;;;6047001;29;20297;-66
2022/10/05 00:07:21;;;;;;;3.15;2.85;;;12.60;99.90;;;;;;6047261;29;20297;-66
2022/10/05 00:10:26;;;;;;;2.88;2.50;;;12.60;99.90;;;;;;6039271;29;20496;-67
2022/10/05 00:13:31;;;;;;;4.13;2.20;;;12.50;99.90;;;;;;6037852;29;20279;-67
2022/10/05 00:16:37;;;;;;;5.75;2.47;;;12.60;99.90;;;;;;6024392;29;20278;-67
2022/10/05 00:19:45;;;;;;;2.55;2.17;;;12.50;99.90;;;;;;6026240;29;20306;-67
2022/10/05 00:22:56;;;;;;;5.30;3.25;;;12.60;99.90;;;;;;6028672;29;20270;-67
2022/10/05 00:26:09;;;;;;;3.47;2.40;;;12.60;99.90;;;;;;6027939;29;20309;-66
2022/10/05 00:29:22;;;;;;;10.48;2.33;;;12.60;99.90;;;;;;6028021;29;20583;-66
2022/10/05 00:32:28;;;;;;;2.65;2.22;;;12.60;99.90;;;;;;6028294;29;20275;-66
2022/10/05 00:35:35;;;;;;;3.15;2.25;;;12.60;99.90;;;;;;6027920;29;20314;-67
2022/10/05 00:38:41;;;;;;;4.75;2.53;;;12.50;99.90;;;;;;6027949;29;20295;-66
2022/10/05 00:42:06;;;;;;;3.85;2.17;;;12.50;99.90;;;;;;6028180;29;20588;-66
2022/10/05 00:45:15;;;;;;;3.25;2.63;;;12.50;99.90;;;;;;6041497;29;20310;-66
2022/10/05 00:48:28;;;;;;;4.80;2.13;;;12.50;99.90;;;;;;6028076;29;20275;-67
2022/10/05 00:51:37;;;;;;;2.88;2.35;;;12.50;99.90;;;;;;6026830;29;20566;-67
2022/10/05 00:54:46;;;;;;;7.43;2.30;;;12.50;99.90;;;;;;6041627;29;20586;-67
2022/10/05 00:58:07;;;;;;;5.65;2.72;;;12.50;99.90;;;;;;6027514;29;20275;-67
2022/10/05 01:01:16;;;;;;;5.30;2.40;;;12.40;99.90;;;;;;6027370;29;20294;-67
2022/10/05 01:04:30;;;;;;;5.20;2.35;;;12.40;99.90;;;;;;6027357;29;20298;-66
2022/10/05 01:07:42;;;;;;;5.78;1.92;;;12.40;99.90;;;;;;6041425;29;20306;-67
2022/10/05 01:10:54;;;;;;;2.53;2.17;;;12.40;99.90;;;;;;6037197;29;20298;-67
2022/10/05 01:14:05;;;;;;;4.68;2.70;;;12.40;99.90;;;;;;6049699;29;20455;-67
2022/10/05 01:17:18;;;;;;;2.30;2.13;;;12.40;99.90;;;;;;6063973;29;20448;-66
2022/10/05 01:20:36;;;;;;;2.22;2.13;;;12.40;99.90;;;;;;6049965;29;20297;-67
2022/10/05 01:24:24;;;;;;;2.88;2.15;;;12.40;99.90;;;;;;6049483;29;20274;-67
2022/10/05 01:27:45;;;;;;;4.10;2.65;;;12.40;99.90;;;;;;6050163;29;20377;-67
2022/10/05 01:30:57;;;;;;;6.57;2.50;;;12.40;99.90;;;;;;6062930;29;20342;-67
2022/10/05 01:34:08;;;;;;;5.32;2.58;;;12.40;99.90;;;;;;6049425;29;20307;-66
2022/10/05 01:37:20;;;;;;;7.30;2.75;;;12.40;99.90;;;;;;6063593;29;20297;-67
2022/10/05 01:40:34;;;;;;;6.38;2.63;;;12.40;99.90;;;;;;6049534;29;20608;-67
2022/10/05 01:43:45;;;;;;;4.32;2.72;;;12.40;99.90;;;;;;6063777;29;20286;-67
2022/10/05 01:46:54;;;;;;;6.45;2.40;;;12.40;99.90;;;;;;6063514;29;20313;-67
2022/10/05 01:50:04;;;;;;;5.13;2.70;;;12.40;99.90;;;;;;6049248;29;20297;-67
2022/10/05 01:53:19;;;;;;;2.78;2.63;;;12.50;99.90;;;;;;6049543;29;20528;-66
2022/10/05 01:56:36;;;;;;;7.25;2.88;;;12.40;99.90;;;;;;6062098;29;20285;-66
2022/10/05 01:59:59;;;;;;;4.78;2.47;;;12.50;99.90;;;;;;6063174;29;20305;-67
2022/10/05 02:03:12;;;;;;;2.78;2.50;;;12.50;99.90;;;;;;6049422;29;20270;-67
2022/10/05 02:06:21;;;;;;;3.88;3.17;;;12.40;99.90;;;;;;6048394;29;20306;-67
2022/10/05 02:09:29;;;;;;;6.88;2.97;;;12.40;99.90;;;;;;6062734;29;20301;-66
2022/10/05 02:12:38;;;;;;;6.97;3.22;;;12.50;99.90;;;;;;6026567;29;20284;-67
2022/10/05 02:15:51;;;;;;;3.17;2.97;;;12.40;99.90;;;;;;6039706;29;20609;-67
2022/10/05 02:18:59;;;;;;;5.88;3.25;;;12.50;99.90;;;;;;6025399;29;20299;-67
2022/10/05 02:22:08;;;;;;;5.60;3.20;;;12.50;99.90;;;;;;6026068;29;20279;-67
2022/10/05 02:25:18;;;;;;;7.25;2.70;;;12.50;99.90;;;;;;6039492;29;20298;-66
2022/10/05 02:28:28;;;;;;;6.22;2.97;;;12.50;99.90;;;;;;6039387;29;20292;-67
2022/10/05 02:31:40;;;;;;;5.75;3.03;;;12.50;99.90;;;;;;6039555;29;20279;-67
2022/10/05 02:34:46;;;;;;;6.57;3.38;;;12.50;99.90;;;;;;6039040;29;20302;-67
2022/10/05 02:38:11;;;;;;;4.15;3.05;;;12.50;99.90;;;;;;6025399;29;20578;-67
2022/10/05 02:41:23;;;;;;;3.17;2.97;;;12.60;99.90;;;;;;6039005;29;20295;-67
2022/10/05 02:44:35;;;;;;;8.35;3.50;;;12.50;99.90;;;;;;6024653;29;20298;-67
2022/10/05 02:47:47;;;;;;;6.63;3.47;;;12.50;99.90;;;;;;6039529;29;20593;-67
2022/10/05 02:50:59;;;;;;;7.32;3.65;;;12.60;99.90;;;;;;6039058;29;20298;-67
2022/10/05 02:54:14;;;;;;;5.30;3.20;;;12.60;99.90;;;;;;6024952;29;20298;-67
2022/10/05 02:57:28;;;;;;;7.55;3.45;;;12.60;99.90;;;;;;6039470;29;20278;-66
2022/10/05 03:00:39;;;;;;;7.10;3.42;;;12.60;99.90;;;;;;6038590;29;20302;-65
2022/10/05 03:04:00;;;;;;;8.63;3.78;;;12.70;99.90;;;;;;6045032;29;20306;-67
2022/10/05 03:07:13;;;;;;;10.23;3.80;;;12.70;99.90;;;;;;6050586;29;20298;-67
2022/10/05 03:10:28;;;;;;;7.22;3.60;;;12.80;99.90;;;;;;6041457;29;20297;-67
2022/10/05 03:13:42;;;;;;;11.95;4.30;;;12.70;99.90;;;;;;6047495;29;20301;-67
2022/10/05 03:16:57;;;;;;;11.95;3.90;;;12.80;99.90;;;;;;6047949;29;20458;-66
2022/10/05 03:20:24;;;;;;;7.30;3.28;;;12.70;99.90;;;;;;6035022;29;20381;-66
2022/10/05 03:23:35;;;;;;;8.70;4.25;;;12.80;99.90;;;;;;6038245;29;20291;-67
2022/10/05 03:26:45;;;;;;;8.55;3.47;;;12.80;99.90;;;;;;6038903;29;20298;-67
2022/10/05 03:30:00;;;;;;;8.70;3.38;;;12.80;99.90;;;;;;6038513;29;20303;-67
2022/10/05 03:33:17;;;;;;;10.52;3.90;;;12.80;99.90;;;;;;6037998;29;20318;-67
2022/10/05 03:36:30;;;;;;;6.82;3.17;;;12.80;99.90;;;;;;6045701;29;20449;-66
2022/10/05 03:39:41;;;;;;;11.38;3.05;;;12.90;99.90;;;;;;6045394;29;20302;-66
2022/10/05 03:42:57;;;;;;;4.47;3.10;;;12.70;99.90;;;;;;6060986;29;20306;-67
2022/10/05 03:46:07;;;;;;;9.45;3.70;;;12.90;99.90;;;;;;6061328;29;20273;-67
2022/10/05 03:49:19;;;;;;;6.53;3.92;;;12.90;99.90;;;;;;6061306;29;20495;-67
2022/10/05 03:52:32;;;;;;;7.22;3.40;;;12.90;99.90;;;;;;6045296;29;20269;-67
2022/10/05 03:55:42;;;;;;;11.35;3.45;;;12.90;99.90;;;;;;6065698;29;20277;-67
2022/10/05 03:58:53;;;;;;;8.85;3.38;;;12.90;99.90;;;;;;6065606;29;20451;-66
2022/10/05 04:02:01;;;;;;;11.27;3.90;;;13.00;99.90;;;;;;6065981;29;20414;-67
2022/10/05 04:05:14;;;;;;;4.10;3.70;;;13.00;99.90;;;;;;6065530;29;20373;-67
2022/10/05 04:08:28;;;;;;;11.50;3.95;;;13.00;99.90;;;;;;6051507;29;20321;-67
2022/10/05 04:11:38;;;;;;;6.88;3.58;;;12.90;99.90;;;;;;6050740;29;20270;-67
2022/10/05 04:14:48;;;;;;;7.20;3.60;;;13.00;99.90;;;;;;6042239;29;20603;-68
2022/10/05 04:17:58;;;;;;;6.18;3.53;;;13.00;99.90;;;;;;6042386;29;20298;-67
2022/10/05 04:21:07;;;;;;;7.50;3.42;;;13.00;99.90;;;;;;6042409;29;20278;-68
2022/10/05 04:24:18;;;;;;;8.15;3.75;;;13.00;99.90;;;;;;6028062;29;20298;-67
2022/10/05 04:27:30;;;;;;;13.00;4.25;;;13.00;99.90;;;;;;6041587;29;20294;-67
2022/10/05 04:30:39;;;;;;;9.40;3.95;;;13.00;99.90;;;;;;6042025;29;20275;-67
2022/10/05 04:33:53;;;;;;;7.45;3.60;;;13.00;99.90;;;;;;6041702;29;20310;-67
2022/10/05 04:37:01;;;;;;;6.82;4.20;;;13.00;99.90;;;;;;6028353;29;20275;-66
2022/10/05 04:40:23;;;;;;;11.18;3.88;;;13.00;99.90;;;;;;6041381;29;20606;-66
2022/10/05 04:43:37;;;;;;;4.03;3.17;;;13.00;99.90;;;;;;6041959;29;20302;-66
2022/10/05 04:47:00;;;;;;;6.60;4.10;;;13.10;99.90;;;;;;6041654;29;20278;-67
2022/10/05 04:50:20;;;;;;;4.13;3.72;;;13.10;99.90;;;;;;6041474;29;20476;-68
2022/10/05 04:53:51;;;;;;;9.80;3.65;;;13.10;99.90;;;;;;6041777;29;20554;-67
2022/10/05 04:57:00;;;;;;;11.95;3.80;;;13.10;99.90;;;;;;6042154;29;20279;-68
2022/10/05 05:00:22;;;;;;;8.20;3.95;;;13.10;99.90;;;;;;6041100;29;20579;-67
2022/10/05 05:04:05;;;;;;;7.35;3.63;;;13.00;99.90;;;;;;6025870;29;20303;-68
2022/10/05 05:07:26;;;;;;;10.48;4.43;;;13.10;99.90;;;;;;6040237;29;20318;-68
2022/10/05 05:11:18;;;;;;;8.55;4.45;;;13.10;99.90;;;;;;6047499;29;20281;-67
2022/10/05 05:15:21;;;;;;;5.75;3.88;;;13.20;99.90;;;;;;6063442;29;20301;-68
2022/10/05 05:18:58;;;;;;;5.20;3.88;;;13.10;99.90;;;;;;6055095;29;20325;-66
2022/10/05 05:22:06;;;;;;;6.00;3.75;;;13.10;99.90;;;;;;6064483;29;20277;-67
2022/10/05 05:25:36;;;;;;;6.80;3.75;;;13.20;99.90;;;;;;6064018;29;20297;-68
2022/10/05 05:28:51;;;;;;;10.98;4.38;;;13.20;99.90;;;;;;6063523;29;20305;-68
2022/10/05 05:32:03;;;;;;;5.72;3.63;;;13.20;99.90;;;;;;6050107;29;20274;-68
2022/10/05 05:35:36;;;;;;;7.13;3.55;;;13.30;99.90;;;;;;6049618;29;20302;-68
2022/10/05 05:38:46;;;;;;;9.13;3.40;;;13.30;99.90;;;;;;6063573;29;20597;-67
2022/10/05 05:42:00;;;;;;;11.00;3.65;;;13.20;99.90;;;;;;6063662;29;20282;-67
2022/10/05 05:45:16;;;;;;;5.95;3.30;;;13.30;99.90;;;;;;6063264;29;20306;-68
2022/10/05 05:48:31;;;;;;;4.22;3.40;;;13.30;99.90;;;;;;6063035;29;20306;-67
2022/10/05 05:51:42;;;;;;;6.45;3.53;;;13.30;99.90;;;;;;6063650;29;20274;-67
2022/10/05 05:54:52;;;;;;;7.68;3.88;;;13.30;99.90;;;;;;6062655;29;20298;-67
2022/10/05 05:58:02;;;;;;;7.10;3.75;;;13.40;99.90;;;;;;6048593;29;20589;-67
2022/10/05 06:01:12;;;;;;;7.28;3.38;;;13.50;99.90;;;;;;6063500;29;20461;-67
2022/10/05 06:04:44;;;;;;;11.25;3.70;;;13.40;99.90;;;;;;6062944;29;20301;-67
2022/10/05 06:07:52;;;;;;;7.18;3.80;;;13.50;99.90;;;;;;6062504;29;20298;-68
2022/10/05 06:10:59;;;;;;;7.10;3.85;;;13.40;99.90;;;;;;6052759;29;20286;-66
2022/10/05 06:14:14;;;;;;;9.23;3.47;;;13.40;99.90;;;;;;6039554;29;20298;-67
2022/10/05 06:17:24;;;;;;;7.18;4.00;;;13.50;99.90;;;;;;6023464;29;20283;-68
2022/10/05 06:20:38;;;;;;;5.40;3.83;;;13.50;99.90;;;;;;6039552;29;20275;-67
2022/10/05 06:23:47;;;;;;;4.38;3.40;;;13.60;99.90;;;;;;6039444;29;20310;-68
2022/10/05 06:27:25;;;;;;;7.47;3.92;;;13.60;99.90;;;;;;6025676;29;20211;-67
2022/10/05 06:30:51;;;;;;;6.78;4.30;;;13.60;99.90;;;;;;6036376;29;20294;-67
2022/10/05 06:34:04;;;;;;;6.38;3.90;;;13.60;99.90;;;;;;6039375;29;20314;-67
2022/10/05 06:37:18;;;;;;;8.13;3.90;;;13.60;99.90;;;;;;6039516;29;20271;-67
2022/10/05 06:40:32;;;;;;;8.75;3.78;;;13.70;99.90;;;;;;6038808;29;20278;-67
2022/10/05 06:43:48;;;;;;;10.25;3.63;;;13.70;99.90;;;;;;6039021;29;20575;-67
2022/10/05 06:47:23;;;;;;;7.28;3.58;;;13.80;99.90;;;;;;6025277;29;20274;-66
2022/10/05 06:50:44;;;;;;;7.18;3.63;;;13.80;99.90;;;;;;6038203;29;20594;-67
2022/10/05 06:54:35;;;;;;;6.45;3.40;;;13.80;99.90;;;;;;6039097;29;20302;-67
2022/10/05 06:58:13;;;;;;;3.97;3.63;;;13.80;99.90;;;;;;6038930;29;20302;-68
2022/10/05 07:01:32;;;;;;;8.27;3.58;;;13.80;99.90;;;;;;6029417;29;20283;-68
2022/10/05 07:04:51;;;;;;;6.15;3.53;;;13.80;99.90;;;;;;6038862;29;20314;-67
2022/10/05 07:07:58;;;;;;;5.03;3.08;;;13.90;99.90;;;;;;6038484;29;20340;-68
2022/10/05 07:11:16;;;;;;;5.22;3.60;;;13.90;99.90;;;;;;6035909;29;20290;-68
2022/10/05 07:14:32;;;;;;;9.48;3.88;;;13.90;99.90;;;;;;6047574;29;20298;-67
2022/10/05 07:17:46;;;;;;;4.78;3.88;;;13.90;99.90;;;;;;6061553;29;20278;-67
2022/10/05 07:20:59;;;;;;;11.13;3.83;;;13.90;99.90;;;;;;6061813;29;20534;-67
2022/10/05 07:24:13;;;;;;;5.65;4.05;;;14.00;99.90;;;;;;6061533;29;20464;-67
2022/10/05 07:27:21;;;;;;;5.07;3.90;;;14.00;99.90;;;;;;6061972;29;20281;-67
2022/10/05 07:30:29;;;;;;;4.68;3.72;;;14.00;99.90;;;;;;6060127;29;20478;-68
2022/10/05 07:33:40;;;;;;;6.63;3.80;;;14.10;99.90;;;;;;6061203;29;20317;-68
2022/10/05 07:40:23;;;;;;;6.28;3.58;;;14.10;99.90;;;;;;6047230;29;20301;-67
2022/10/05 07:43:40;;;;;;;13.23;3.85;;;14.20;99.90;;;;;;6047077;29;20313;-68
2022/10/05 07:47:13;;;;;;;3.60;3.33;;;14.20;99.90;;;;;;6061793;29;20273;-66
2022/10/05 07:50:24;;;;;;;3.90;3.40;;;14.20;99.90;;;;;;6047030;29;20302;-67
2022/10/05 07:53:35;;;;;;;7.60;3.90;;;14.20;99.90;;;;;;6047087;29;20301;-67
2022/10/05 07:56:42;;;;;;;7.63;3.75;;;14.20;99.90;;;;;;6061256;29;20278;-67
2022/10/05 07:59:59;;;;;;;7.75;3.42;;;14.20;99.90;;;;;;6061011;29;20322;-67
2022/10/05 08:03:11;;;;;;;5.15;3.70;;;14.30;99.90;;;;;;6060859;29;20298;-67
2022/10/05 08:06:40;;;;;;;4.45;3.20;;;14.30;99.90;;;;;;6047412;29;20465;-68
2022/10/05 08:09:52;;;;;;;4.85;3.30;;;14.30;99.90;;;;;;6045814;29;20353;-68
2022/10/05 08:13:07;;;;;;;5.38;3.17;;;14.40;99.90;;;;;;6023593;29;20482;-68
2022/10/05 08:16:14;;;;;;;6.82;3.53;;;14.40;99.90;;;;;;6023915;29;20343;-68
2022/10/05 08:19:23;;;;;;;4.68;3.47;;;14.50;99.90;;;;;;6023893;29;20298;-68
2022/10/05 08:22:35;;;;;;;4.57;3.20;;;14.50;99.90;;;;;;6023771;29;20274;-68
2022/10/05 08:25:49;;;;;;;6.07;3.63;;;14.60;99.90;;;;;;6023867;29;20279;-68
2022/10/05 08:29:03;;;;;;;4.18;3.63;;;14.60;99.90;;;;;;6023811;29;20298;-68
2022/10/05 08:32:19;;;;;;;4.57;3.70;;;14.70;99.90;;;;;;6024156;29;20303;-68
2022/10/05 08:35:32;;;;;;;3.90;3.05;;;14.70;99.90;;;;;;6023375;29;20275;-68
2022/10/05 08:38:38;;;;;;;8.38;3.40;;;14.70;99.90;;;;;;6023763;29;20307;-66
2022/10/05 08:42:04;;;;;;;3.35;3.10;;;14.70;99.90;;;;;;6027564;29;20282;-67
2022/10/05 08:46:13;;;;;;;3.40;3.15;;;14.80;99.90;;;;;;6027807;29;20303;-68
2022/10/05 08:49:49;;;;;;;5.07;3.38;;;14.80;99.90;;;;;;6018193;29;20306;-66
2022/10/05 08:53:27;;;;;;;3.00;2.80;;;14.90;99.90;;;;;;6027566;29;20299;-67
2022/10/05 08:56:41;;;;;;;3.85;2.90;;;14.90;99.90;;;;;;6027941;29;20278;-67
2022/10/05 09:00:09;;;;;;;3.95;3.45;;;14.90;99.90;;;;;;6027376;29;20303;-68
2022/10/05 09:03:26;;;;;;;3.55;3.08;;;14.90;99.90;;;;;;6027201;29;20295;-67
2022/10/05 09:07:15;;;;;;;6.80;3.38;;;15.00;99.90;;;;;;6026976;29;20299;-67
2022/10/05 09:10:59;;;;;;;3.13;2.90;;;15.00;99.90;;;;;;6031135;29;20293;-68
2022/10/05 09:14:24;;;;;;;6.82;2.80;;;15.00;99.90;;;;;;6049958;29;20305;-67
2022/10/05 09:18:18;;;;;;;7.10;2.67;;;15.00;99.90;;;;;;6050052;29;20278;-67
2022/10/05 09:21:41;;;;;;;4.35;3.28;;;15.10;99.90;;;;;;6050343;29;20470;-67
2022/10/05 09:24:56;;;;;;;3.40;2.63;;;15.00;99.90;;;;;;6049733;29;20313;-67
2022/10/05 09:28:20;;;;;;;2.83;2.63;;;15.20;99.90;;;;;;6049486;29;20298;-67
2022/10/05 09:31:47;;;;;;;6.50;3.00;;;15.20;99.90;;;;;;6049964;29;20298;-67
2022/10/05 09:35:05;;;;;;;2.47;2.30;;;15.20;99.90;;;;;;6063692;29;20330;-67
2022/10/05 09:38:22;;;;;;;5.97;2.60;;;15.20;99.90;;;;;;6049423;29;20301;-67
2022/10/05 09:41:52;;;;;;;2.75;2.70;;;15.30;99.90;;;;;;6049785;29;20579;-68
2022/10/05 09:45:53;;;;;;;11.57;2.65;;;15.30;99.90;;;;;;6049488;29;20586;-67
2022/10/05 09:49:27;;;;;;;2.50;2.40;;;15.40;99.90;;;;;;6049178;29;20302;-67
2022/10/05 09:53:06;;;;;;;2.80;2.70;;;15.50;99.90;;;;;;6048653;29;20638;-68
2022/10/05 09:56:33;;;;;;;7.05;2.28;;;15.50;99.90;;;;;;6049609;29;20311;-67
2022/10/05 10:00:23;;;;;;;3.05;2.33;;;15.50;99.90;;;;;;6049051;29;20300;-67
2022/10/05 10:04:14;;;;;;;2.50;2.30;;;15.60;99.90;;;;;;6049024;29;20294;-67
2022/10/05 10:07:59;;;;;;;5.15;2.40;;;15.60;99.90;;;;;;6049413;29;20427;-67
2022/10/05 10:11:29;;;;;;;3.88;2.50;;;15.70;99.90;;;;;;6004540;29;20290;-67
2022/10/05 10:15:14;;;;;;;3.50;2.40;;;15.70;99.90;;;;;;6025842;29;20294;-67
2022/10/05 10:18:36;;;;;;;4.30;2.55;;;15.80;99.90;;;;;;6020258;29;20496;-67
2022/10/05 10:22:37;;;;;;;4.20;2.30;;;15.80;99.90;;;;;;6026115;29;20280;-67
2022/10/05 10:26:37;;;;;;;3.33;2.13;;;15.80;99.90;;;;;;5998946;29;20278;-67
2022/10/05 10:30:37;;;;;;;3.28;2.20;;;15.80;99.90;;;;;;6021307;29;20482;-67
2022/10/05 10:34:12;;;;;;;2.15;2.03;;;15.70;99.90;;;;;;6036691;29;20482;-67
2022/10/05 10:37:52;;;;;;;2.60;2.40;;;15.80;99.90;;;;;;6025151;29;20286;-67
2022/10/05 10:41:52;;;;;;;4.88;2.28;;;15.80;99.90;;;;;;6022816;29;20466;-67
2022/10/05 10:45:19;;;;;;;3.72;2.20;;;15.80;99.90;;;;;;6024996;29;20299;-67
2022/10/05 10:48:56;;;;;;;2.10;2.00;;;15.80;99.90;;;;;;6024697;29;20314;-67
2022/10/05 10:52:20;;;;;;;6.07;2.28;;;15.80;99.90;;;;;;6025345;29;20302;-67
2022/10/05 10:55:36;;;;;;;2.83;2.60;;;15.80;99.90;;;;;;6023897;29;20283;-67
2022/10/05 10:59:40;;;;;;;1.90;1.90;;;15.80;99.90;;;;;;6024713;29;20354;-67
2022/10/05 11:03:12;;;;;;;2.42;2.08;;;15.80;99.90;;;;;;5998368;29;20302;-67
2022/10/05 11:07:18;;;;;;;3.00;2.13;;;15.90;99.90;;;;;;6024826;29;20307;-68
2022/10/05 11:11:10;;;;;;;2.33;2.05;;;15.90;99.90;;;;;;6014211;29;20278;-67
2022/10/05 11:14:41;;;;;;;2.42;2.20;;;16.00;99.90;;;;;;6017091;29;20298;-67
2022/10/05 11:18:19;;;;;;;6.57;2.20;;;16.00;99.90;;;;;;6047388;29;20378;-67
2022/10/05 11:21:29;;;;;;;2.42;2.30;;;16.10;99.90;;;;;;6047760;29;20278;-67
2022/10/05 11:24:53;;;;;;;2.10;2.00;;;16.10;99.90;;;;;;6047169;29;20297;-67
2022/10/05 11:28:15;;;;;;;2.65;2.10;;;16.20;99.90;;;;;;6047171;29;20598;-68
2022/10/05 11:31:52;;;;;;;6.63;2.20;;;16.20;99.90;;;;;;6047556;29;20295;-68
2022/10/05 11:35:23;;;;;;;3.42;2.10;;;16.20;99.90;;;;;;6047092;29;20302;-67
2022/10/05 11:39:00;;;;;;;5.75;2.20;;;16.20;99.90;;;;;;6047142;29;20313;-68
2022/10/05 11:42:39;;;;;;;1.90;1.80;;;16.30;99.90;;;;;;6046170;29;20281;-67
2022/10/05 11:46:01;;;;;;;2.70;2.35;;;16.30;99.90;;;;;;6046388;29;20565;-67
2022/10/05 11:49:34;;;;;;;2.00;1.90;;;16.30;99.90;;;;;;6047095;29;20298;-67
2022/10/05 11:52:43;;;;;;;2.80;1.80;;;16.30;99.90;;;;;;6046813;29;20293;-68
2022/10/05 11:55:57;;;;;;;1.92;1.92;;;16.30;99.90;;;;;;6047568;29;20278;-68
2022/10/05 11:59:11;;;;;;;3.22;2.15;;;16.40;99.90;;;;;;6046746;29;20298;-68
2022/10/05 12:02:43;;;;;;;5.82;2.00;;;16.40;99.90;;;;;;6047032;29;20282;-68
2022/10/05 12:06:01;;;;;;;1.85;1.85;;;16.40;99.90;;;;;;6046100;29;20305;-68
2022/10/05 12:09:22;;;;;;;1.80;1.70;;;16.50;99.90;;;;;;6046486;29;20302;-67
2022/10/05 12:12:35;;;;;;;2.50;2.00;;;16.50;99.90;;;;;;6024866;29;20474;-67
2022/10/05 12:15:48;;;;;;;1.95;1.85;;;16.50;99.90;;;;;;6026852;29;20278;-67
2022/10/05 12:18:59;;;;;;;3.20;2.33;;;16.50;99.90;;;;;;6028217;29;20322;-67
2022/10/05 12:22:14;;;;;;;4.68;2.03;;;16.50;99.90;;;;;;6028395;29;20274;-67
2022/10/05 12:25:25;;;;;;;3.95;2.00;;;16.60;99.90;;;;;;6027885;29;20302;-68
2022/10/05 12:28:35;;;;;;;2.67;1.90;;;16.70;99.90;;;;;;6027859;29;20399;-67
2022/10/05 12:31:51;;;;;;;1.95;1.58;;;16.60;99.90;;;;;;6028393;29;20274;-68
2022/10/05 12:35:03;;;;;;;2.85;1.92;;;16.60;99.90;;;;;;6026552;29;20302;-67
2022/10/05 12:38:20;;;;;;;2.33;2.10;;;16.60;99.90;;;;;;6027913;29;20332;-68
2022/10/05 12:41:32;;;;;;;1.95;1.88;;;16.60;99.90;;;;;;6028062;29;20278;-69
2022/10/05 12:44:58;;;;;;;6.68;1.88;;;16.60;99.90;;;;;;6027708;29;20313;-67
2022/10/05 12:48:24;;;;;;;2.00;2.00;;;16.70;99.90;;;;;;6027606;29;20315;-67
2022/10/05 12:51:38;;;;;;;2.17;2.08;;;16.60;99.90;;;;;;6027742;29;20279;-68
2022/10/05 12:54:48;;;;;;;3.40;2.38;;;16.70;99.90;;;;;;6027514;29;20307;-68
2022/10/05 12:58:05;;;;;;;3.00;1.90;;;16.60;99.90;;;;;;6027241;29;20303;-68
2022/10/05 13:01:28;;;;;;;5.57;2.25;;;16.70;99.90;;;;;;6027938;29;20270;-67
2022/10/05 13:04:45;;;;;;;2.28;2.10;;;16.70;99.90;;;;;;6027308;29;20299;-67
2022/10/05 13:08:05;;;;;;;2.42;2.30;;;16.60;99.90;;;;;;6026536;29;20298;-67
2022/10/05 13:11:16;;;;;;;2.45;2.30;;;16.60;99.90;;;;;;6039077;29;20274;-68
2022/10/05 13:14:37;;;;;;;3.72;2.42;;;16.60;99.90;;;;;;6049797;29;20314;-69
2022/10/05 13:17:49;;;;;;;3.63;2.47;;;16.50;99.90;;;;;;6049940;29;20297;-68
2022/10/05 13:21:03;;;;;;;2.70;2.50;;;16.40;99.90;;;;;;6049895;29;20270;-68
2022/10/05 13:24:17;;;;;;;2.65;2.50;;;16.30;99.90;;;;;;6049800;29;20601;-67
2022/10/05 13:27:27;;;;;;;2.42;2.30;;;16.30;99.90;;;;;;6048558;29;20286;-68
2022/10/05 13:30:33;;;;;;;2.92;2.70;;;16.30;99.90;;;;;;6050240;29;20274;-67
2022/10/05 13:33:58;;;;;;;4.57;3.13;;;16.30;99.90;;;;;;6049482;29;20310;-67
2022/10/05 13:37:12;;;;;;;6.72;3.40;;;16.30;99.90;;;;;;6049552;29;20270;-67
2022/10/05 13:40:25;;;;;;;5.78;2.90;;;16.40;99.90;;;;;;6049586;29;20313;-67
2022/10/05 13:43:40;;;;;;;5.75;3.17;;;16.30;99.90;;;;;;6049277;29;20298;-67
2022/10/05 13:46:49;;;;;;;3.67;3.33;;;16.20;99.90;;;;;;6049590;29;20274;-67
2022/10/05 13:49:59;;;;;;;3.85;3.20;;;16.20;99.90;;;;;;6049331;29;20313;-67
2022/10/05 13:53:16;;;;;;;4.72;3.22;;;16.10;99.90;;;;;;6049196;29;20302;-67
2022/10/05 13:56:30;;;;;;;3.40;2.97;;;16.20;99.90;;;;;;6049641;29;20274;-67
2022/10/05 13:59:41;;;;;;;4.88;3.33;;;16.20;99.90;;;;;;6048869;29;20306;-67
2022/10/05 14:02:50;;;;;;;3.30;3.00;;;16.20;99.90;;;;;;6048932;29;20294;-68
2022/10/05 14:05:57;;;;;;;6.32;3.60;;;16.10;99.90;;;;;;6063234;29;20306;-67
2022/10/05 14:09:02;;;;;;;2.92;2.60;;;16.10;99.90;;;;;;6048597;29;20593;-67
2022/10/05 14:12:14;;;;;;;3.28;3.17;;;16.10;99.90;;;;;;6029794;29;20578;-67
2022/10/05 14:15:22;;;;;;;4.68;3.30;;;16.20;99.90;;;;;;6025603;29;20314;-68
2022/10/05 14:18:30;;;;;;;2.85;2.75;;;16.10;99.90;;;;;;6025538;29;20407;-68
2022/10/05 14:21:48;;;;;;;5.15;2.47;;;16.10;99.90;;;;;;6025818;29;20274;-68
2022/10/05 14:24:56;;;;;;;2.35;2.35;;;16.20;99.90;;;;;;6024921;29;20312;-68
2022/10/05 14:28:23;;;;;;;2.83;2.63;;;16.10;99.90;;;;;;6025347;29;20310;-68
2022/10/05 14:31:34;;;;;;;6.38;2.95;;;16.20;99.90;;;;;;6025365;29;20282;-68
2022/10/05 14:34:44;;;;;;;4.47;2.60;;;16.10;99.90;;;;;;6025174;29;20311;-68
2022/10/05 14:37:57;;;;;;;2.78;2.40;;;16.10;99.90;;;;;;6025158;29;20294;-68
2022/10/05 14:41:15;;;;;;;2.45;2.20;;;16.10;99.90;;;;;;6025080;29;20565;-68
2022/10/05 14:44:31;;;;;;;2.63;2.15;;;16.10;99.90;;;;;;6024764;29;20306;-68
2022/10/05 14:47:50;;;;;;;3.40;2.47;;;16.20;99.90;;;;;;6024888;29;20315;-68
2022/10/05 14:50:58;;;;;;;2.05;2.05;;;16.20;99.90;;;;;;6025546;29;20270;-68
2022/10/05 14:54:24;;;;;;;2.42;2.28;;;16.20;99.90;;;;;;6025043;29;20599;-68
2022/10/05 14:57:38;;;;;;;2.38;2.38;;;16.20;99.90;;;;;;6024683;29;20479;-68
2022/10/05 15:00:54;;;;;;;2.17;2.08;;;16.20;99.90;;;;;;6025099;29;20270;-66
2022/10/05 15:04:19;;;;;;;2.20;2.10;;;16.20;99.90;;;;;;6024478;29;20335;-67
2022/10/05 15:07:28;;;;;;;2.15;2.15;;;16.20;99.90;;;;;;6023715;29;20306;-67
2022/10/05 15:10:38;;;;;;;2.25;2.10;;;16.20;99.90;;;;;;6031593;29;20322;-68
2022/10/05 15:13:46;;;;;;;3.45;3.17;;;16.20;99.90;;;;;;6047067;29;20302;-68
2022/10/05 15:16:54;;;;;;;3.08;2.80;;;16.30;99.90;;;;;;6047720;29;20273;-67
2022/10/05 15:20:06;;;;;;;2.45;2.35;;;16.20;99.90;;;;;;6047255;29;20309;-68
2022/10/05 15:23:23;;;;;;;3.20;2.80;;;16.30;99.90;;;;;;6046941;29;20298;-68
2022/10/05 15:26:43;;;;;;;3.72;2.28;;;16.20;99.90;;;;;;6047754;29;20274;-68
2022/10/05 15:30:05;;;;;;;3.08;2.30;;;16.30;99.90;;;;;;6046821;29;20314;-67
2022/10/05 15:33:26;;;;;;;4.05;2.50;;;16.30;99.90;;;;;;6046869;29;20296;-68
2022/10/05 15:36:37;;;;;;;5.90;2.15;;;16.30;99.90;;;;;;6047562;29;20298;-67
2022/10/05 15:39:49;;;;;;;2.75;2.45;;;16.30;99.90;;;;;;6046922;29;20596;-68
2022/10/05 15:43:01;;;;;;;6.38;2.17;;;16.40;99.90;;;;;;6046968;29;20285;-68
2022/10/05 15:46:13;;;;;;;3.85;2.38;;;16.40;99.90;;;;;;6047514;29;20278;-67
2022/10/05 15:49:28;;;;;;;2.40;2.17;;;16.30;99.90;;;;;;6047476;29;20302;-67
2022/10/05 15:52:41;;;;;;;3.00;2.03;;;16.30;99.90;;;;;;6051341;29;20276;-67
2022/10/05 15:55:51;;;;;;;4.57;2.05;;;16.30;99.90;;;;;;6051924;29;20297;-67
2022/10/05 15:58:58;;;;;;;2.53;2.33;;;16.30;99.90;;;;;;6051637;29;20621;-68
2022/10/05 16:02:14;;;;;;;3.22;2.63;;;16.20;99.90;;;;;;6052030;29;20282;-67
2022/10/05 16:09:14;;;;;;;2.22;1.95;;;16.20;99.90;;;;;;6051389;29;20309;-68
2022/10/05 16:12:44;;;;;;;2.10;2.00;;;16.30;99.90;;;;;;6030754;29;20579;-68
2022/10/05 16:15:54;;;;;;;2.60;2.50;;;16.30;99.90;;;;;;6027936;29;20616;-68
2022/10/05 16:19:05;;;;;;;2.28;2.10;;;16.30;99.90;;;;;;6027977;29;20333;-67
2022/10/05 16:22:20;;;;;;;11.98;2.97;;;16.20;99.90;;;;;;6028432;29;20274;-67
2022/10/05 16:25:35;;;;;;;3.65;2.20;;;16.20;99.90;;;;;;6027527;29;20285;-67
2022/10/05 16:28:51;;;;;;;4.00;2.25;;;16.20;99.90;;;;;;6027683;29;20307;-66
2022/10/05 16:32:00;;;;;;;2.58;2.47;;;16.20;99.90;;;;;;6028462;29;20279;-67
2022/10/05 16:35:17;;;;;;;2.25;2.22;;;16.20;99.90;;;;;;6027945;29;20340;-67
2022/10/05 16:38:31;;;;;;;2.35;2.25;;;16.10;99.90;;;;;;6027999;29;20306;-67
2022/10/05 16:41:43;;;;;;;3.30;2.30;;;16.10;99.90;;;;;;6027763;29;20275;-67
2022/10/05 16:44:54;;;;;;;2.30;2.05;;;16.10;99.90;;;;;;6027732;29;20302;-67
2022/10/05 16:48:05;;;;;;;2.80;2.30;;;16.00;99.90;;;;;;6027070;29;20306;-68
2022/10/05 16:51:26;;;;;;;2.85;2.30;;;16.00;99.90;;;;;;6028088;29;20270;-67
2022/10/05 16:54:37;;;;;;;4.75;2.20;;;16.10;99.90;;;;;;6027293;29;20306;-67
2022/10/05 16:57:47;;;;;;;3.65;2.60;;;16.00;99.90;;;;;;6027187;29;20496;-67
2022/10/05 17:01:08;;;;;;;3.13;2.53;;;16.00;99.90;;;;;;6026788;29;20283;-67
2022/10/05 17:04:27;;;;;;;3.15;2.15;;;15.90;99.90;;;;;;6027329;29;20298;-67
2022/10/05 17:07:52;;;;;;;4.20;2.00;;;15.90;99.90;;;;;;6026784;29;20302;-67
2022/10/05 17:11:06;;;;;;;4.57;2.38;;;15.90;99.90;;;;;;6051830;29;20443;-68
2022/10/05 17:14:32;;;;;;;3.13;2.13;;;15.90;99.90;;;;;;6050009;29;20301;-68
2022/10/05 17:18:26;;;;;;;2.45;2.25;;;15.90;99.90;;;;;;6049412;29;20586;-67